Time;durP1;ratioP1;P1;durP2;ratioP2;P2;SDS_P1;SDS_P2;PMS_P1;PMS_P2;Temp;Humidity;BMP_temperature;BMP_pressure;BME280_temperature;BME280_humidity;BME280_pressure;Samples;Min_cycle;Max_cycle;Signal;HPM_P1;HPM_P2
2022/07/27 00:01:50;;;;;;;3.63;3.43;;;23.30;63.90;;;;;;10453784;28;20667;-79
2022/07/27 00:06:52;;;;;;;3.70;3.50;;;23.30;64.00;;;;;;10455702;28;20579;-79
2022/07/27 00:11:55;;;;;;;4.33;3.97;;;23.30;63.40;;;;;;10457858;28;20229;-78
2022/07/27 00:16:57;;;;;;;4.10;3.90;;;23.40;63.40;;;;;;10457233;28;20206;-78
2022/07/27 00:21:59;;;;;;;4.10;3.80;;;23.30;63.00;;;;;;10465285;28;20255;-79
2022/07/27 00:27:03;;;;;;;4.23;4.03;;;23.40;64.00;;;;;;10459466;28;20572;-79
2022/07/27 00:32:06;;;;;;;4.30;4.10;;;23.30;64.20;;;;;;10447251;28;20228;-77
2022/07/27 00:37:08;;;;;;;4.20;4.00;;;23.30;63.00;;;;;;10456997;28;20226;-79
2022/07/27 00:42:12;;;;;;;6.70;4.13;;;23.30;64.00;;;;;;10458676;28;20254;-78
2022/07/27 00:47:14;;;;;;;4.23;3.93;;;23.20;64.00;;;;;;10457111;28;20270;-79
2022/07/27 00:52:17;;;;;;;4.07;3.77;;;23.20;64.30;;;;;;10441668;28;20209;-79
2022/07/27 00:57:21;;;;;;;4.67;4.30;;;23.30;64.70;;;;;;10462990;28;20201;-79
2022/07/27 01:02:25;;;;;;;4.90;4.60;;;23.30;63.60;;;;;;10458440;28;20229;-80
2022/07/27 01:07:30;;;;;;;4.70;4.30;;;23.30;64.00;;;;;;10461506;28;20225;-79
2022/07/27 01:12:34;;;;;;;5.10;4.73;;;23.30;65.40;;;;;;10456083;28;20284;-79
2022/07/27 01:17:36;;;;;;;5.87;4.47;;;23.30;64.60;;;;;;10464686;28;20691;-78
2022/07/27 01:22:39;;;;;;;5.23;4.93;;;23.30;64.00;;;;;;10465121;28;20236;-79
2022/07/27 01:27:41;;;;;;;5.20;4.80;;;23.30;65.80;;;;;;10466318;28;20258;-78
2022/07/27 01:32:43;;;;;;;6.17;4.77;;;23.20;65.30;;;;;;10453602;28;20244;-79
2022/07/27 01:37:47;;;;;;;4.77;4.37;;;23.20;65.40;;;;;;10455509;28;20197;-79
2022/07/27 01:42:49;;;;;;;6.50;4.90;;;23.10;64.50;;;;;;10455246;28;20229;-76
2022/07/27 01:47:51;;;;;;;6.10;4.90;;;23.00;65.00;;;;;;10452652;28;20221;-77
2022/07/27 01:52:54;;;;;;;5.00;4.60;;;23.00;65.40;;;;;;10453538;28;20221;-78
2022/07/27 01:57:56;;;;;;;4.70;4.30;;;22.90;65.90;;;;;;10448240;28;20201;-78
2022/07/27 02:02:59;;;;;;;4.60;4.37;;;22.90;66.20;;;;;;10455249;28;20282;-78
2022/07/27 02:08:02;;;;;;;5.00;4.70;;;22.90;66.10;;;;;;10453737;28;20212;-79
2022/07/27 02:13:04;;;;;;;4.93;4.57;;;22.90;67.00;;;;;;10454212;28;20232;-78
2022/07/27 02:18:07;;;;;;;4.97;4.70;;;22.80;65.70;;;;;;10455759;28;20201;-78
2022/07/27 02:23:10;;;;;;;5.53;5.03;;;22.80;66.30;;;;;;10452601;28;20229;-79
2022/07/27 02:28:12;;;;;;;5.73;5.33;;;22.70;66.80;;;;;;10451926;28;20669;-77
2022/07/27 02:33:15;;;;;;;4.50;4.20;;;22.70;67.50;;;;;;10452023;28;20225;-76
2022/07/27 02:38:19;;;;;;;5.47;5.07;;;22.70;66.50;;;;;;10456890;28;20584;-79
2022/07/27 02:43:21;;;;;;;5.10;4.70;;;22.60;67.40;;;;;;10458644;28;20221;-79
2022/07/27 02:48:23;;;;;;;5.83;5.43;;;22.60;67.10;;;;;;10461335;28;20322;-78
2022/07/27 02:53:27;;;;;;;4.87;4.57;;;22.50;65.80;;;;;;10462137;28;20731;-78
2022/07/27 02:58:29;;;;;;;5.73;5.23;;;22.50;66.70;;;;;;10464856;28;20217;-78
2022/07/27 03:03:31;;;;;;;5.20;4.90;;;22.50;66.50;;;;;;10465916;28;20957;-80
2022/07/27 03:08:35;;;;;;;5.70;5.30;;;22.50;66.10;;;;;;10457472;28;20301;-77
2022/07/27 03:13:37;;;;;;;6.00;5.40;;;22.40;66.40;;;;;;10434386;28;20214;-78
2022/07/27 03:18:40;;;;;;;6.13;5.63;;;22.40;67.90;;;;;;10451892;28;20216;-77
2022/07/27 03:23:43;;;;;;;8.13;5.63;;;22.40;69.40;;;;;;10450992;28;20316;-77
2022/07/27 03:28:45;;;;;;;6.20;5.80;;;22.40;68.80;;;;;;10454546;28;20217;-79
2022/07/27 03:33:47;;;;;;;5.80;5.10;;;22.40;69.50;;;;;;10456181;28;20304;-79
2022/07/27 03:38:51;;;;;;;5.30;5.00;;;22.40;69.40;;;;;;10456992;28;20194;-79
2022/07/27 03:43:53;;;;;;;6.03;5.47;;;22.30;68.10;;;;;;10462291;28;20304;-79
2022/07/27 03:48:56;;;;;;;6.30;5.77;;;22.30;69.70;;;;;;10465912;28;20238;-79
2022/07/27 03:53:59;;;;;;;5.90;5.50;;;22.30;68.50;;;;;;10465942;28;20252;-80
2022/07/27 03:59:01;;;;;;;5.77;5.47;;;22.20;68.60;;;;;;10465625;28;20272;-80
2022/07/27 04:04:04;;;;;;;5.67;5.37;;;22.20;69.10;;;;;;10464649;28;20237;-78
2022/07/27 04:09:07;;;;;;;7.20;4.90;;;22.10;68.90;;;;;;10460386;28;20771;-82
2022/07/27 04:14:09;;;;;;;8.17;5.60;;;22.10;68.20;;;;;;10466439;28;20287;-78
2022/07/27 04:19:11;;;;;;;6.13;5.80;;;22.00;69.50;;;;;;10460075;28;20609;-79
2022/07/27 04:24:15;;;;;;;6.10;5.50;;;22.00;69.00;;;;;;10466537;28;20658;-78
2022/07/27 04:29:17;;;;;;;6.30;5.80;;;22.00;70.40;;;;;;10473038;28;20602;-80
2022/07/27 04:34:19;;;;;;;5.60;5.17;;;22.00;71.10;;;;;;10470212;28;20213;-83
2022/07/27 04:39:23;;;;;;;5.97;5.50;;;22.10;70.10;;;;;;10468210;28;20665;-80
2022/07/27 04:44:25;;;;;;;8.00;6.23;;;22.10;70.50;;;;;;10463266;28;20229;-80
2022/07/27 04:49:27;;;;;;;6.43;5.90;;;22.20;70.70;;;;;;10459548;28;20292;-79
2022/07/27 04:54:31;;;;;;;5.90;5.50;;;22.20;69.70;;;;;;10462520;28;20221;-80
2022/07/27 04:59:33;;;;;;;5.90;5.60;;;22.20;70.20;;;;;;10466517;28;20745;-79
2022/07/27 05:04:35;;;;;;;6.77;6.37;;;22.20;69.70;;;;;;10466440;28;20576;-81
2022/07/27 05:09:39;;;;;;;5.50;5.20;;;22.20;72.10;;;;;;10463421;28;20216;-80
2022/07/27 05:14:41;;;;;;;6.90;6.30;;;22.30;70.90;;;;;;10462659;28;20693;-79
2022/07/27 05:19:43;;;;;;;5.73;5.33;;;22.20;71.00;;;;;;10461360;28;20205;-82
2022/07/27 05:24:46;;;;;;;5.60;5.30;;;22.30;70.80;;;;;;10461766;28;20240;-82
2022/07/27 05:29:49;;;;;;;6.30;5.70;;;22.30;71.20;;;;;;10462494;28;20248;-80
2022/07/27 05:34:51;;;;;;;6.73;6.13;;;22.40;70.40;;;;;;10461700;28;20577;-80
2022/07/27 05:39:55;;;;;;;6.90;6.40;;;22.40;70.40;;;;;;10462040;28;20228;-80
2022/07/27 05:44:57;;;;;;;6.67;6.23;;;22.40;70.70;;;;;;10459691;28;20217;-79
2022/07/27 05:49:59;;;;;;;5.80;5.40;;;22.50;70.90;;;;;;10460999;28;20244;-81
2022/07/27 05:55:02;;;;;;;6.63;6.20;;;22.50;70.10;;;;;;10443083;28;20251;-78
2022/07/27 06:00:06;;;;;;;6.63;6.03;;;22.50;69.80;;;;;;10459789;28;20883;-80
2022/07/27 06:05:13;;;;;;;7.80;6.30;;;22.60;70.20;;;;;;10460968;28;20198;-77
2022/07/27 06:10:17;;;;;;;7.03;6.37;;;22.70;68.80;;;;;;10459183;28;20221;-79
2022/07/27 06:15:19;;;;;;;6.90;6.43;;;22.70;69.40;;;;;;10459145;28;20228;-78
2022/07/27 06:20:23;;;;;;;6.40;5.97;;;22.80;69.70;;;;;;10460004;28;20334;-78
2022/07/27 06:25:28;;;;;;;6.40;5.80;;;22.90;69.30;;;;;;10459943;28;20626;-80
2022/07/27 06:30:30;;;;;;;6.33;5.53;;;23.00;70.20;;;;;;10459956;28;20259;-79
2022/07/27 06:35:33;;;;;;;5.67;5.27;;;23.10;69.60;;;;;;10461871;28;20209;-77
2022/07/27 06:40:36;;;;;;;6.83;6.00;;;23.20;70.10;;;;;;10444575;28;20228;-79
2022/07/27 06:45:38;;;;;;;7.37;6.67;;;23.40;68.80;;;;;;10459407;28;20227;-79
2022/07/27 06:50:40;;;;;;;6.67;6.37;;;23.60;70.00;;;;;;10459498;28;20267;-79
2022/07/27 06:55:44;;;;;;;5.97;5.47;;;23.80;67.50;;;;;;10459135;28;20319;-79
2022/07/27 07:00:46;;;;;;;5.70;5.40;;;23.90;68.50;;;;;;10462744;28;20313;-78
2022/07/27 07:05:49;;;;;;;6.27;5.60;;;24.00;67.80;;;;;;10460676;28;20197;-79
2022/07/27 07:10:52;;;;;;;6.07;5.67;;;24.10;66.90;;;;;;10457262;28;20222;-78
2022/07/27 07:15:55;;;;;;;5.50;5.20;;;24.20;67.30;;;;;;10453714;28;20201;-78
2022/07/27 07:20:57;;;;;;;5.97;5.57;;;24.30;65.90;;;;;;10437108;28;20692;-79
2022/07/27 07:26:01;;;;;;;5.80;5.40;;;24.50;66.40;;;;;;10454931;28;20231;-80
2022/07/27 07:31:03;;;;;;;7.03;5.43;;;24.60;65.70;;;;;;10458152;28;20232;-79
2022/07/27 07:36:05;;;;;;;6.03;5.63;;;24.70;65.20;;;;;;10459219;28;20268;-79
2022/07/27 07:41:09;;;;;;;6.07;5.67;;;24.90;65.40;;;;;;10461080;28;20224;-79
2022/07/27 07:46:11;;;;;;;5.77;5.10;;;24.90;65.50;;;;;;10457384;28;20213;-78
2022/07/27 07:51:13;;;;;;;6.87;6.17;;;24.90;65.70;;;;;;10458103;28;20213;-78
2022/07/27 07:56:17;;;;;;;6.20;5.87;;;24.80;64.80;;;;;;10457707;28;20197;-78
2022/07/27 08:01:19;;;;;;;5.77;5.47;;;24.80;66.30;;;;;;10458817;28;20300;-79
2022/07/27 08:06:21;;;;;;;6.97;6.10;;;25.00;65.40;;;;;;10458400;28;20213;-79
2022/07/27 08:11:24;;;;;;;5.50;5.20;;;25.20;64.40;;;;;;10458302;28;20221;-79
2022/07/27 08:16:26;;;;;;;6.77;6.17;;;25.40;65.20;;;;;;10459941;28;20186;-78
2022/07/27 08:21:29;;;;;;;7.03;6.43;;;25.60;65.30;;;;;;10460180;28;20221;-79
2022/07/27 08:26:32;;;;;;;6.67;6.27;;;25.80;63.30;;;;;;10458815;28;20259;-79
2022/07/27 08:31:34;;;;;;;7.57;7.07;;;25.80;63.30;;;;;;10466504;28;20271;-78
2022/07/27 08:36:36;;;;;;;7.17;6.40;;;25.90;63.40;;;;;;10465371;28;20198;-78
2022/07/27 08:41:41;;;;;;;5.97;5.57;;;26.00;62.80;;;;;;10462190;28;20240;-78
2022/07/27 08:46:45;;;;;;;6.50;6.10;;;26.30;61.90;;;;;;10457444;28;20217;-78
2022/07/27 08:51:48;;;;;;;6.47;6.07;;;26.60;61.70;;;;;;10458229;28;20221;-81
2022/07/27 08:56:52;;;;;;;7.50;6.80;;;26.70;61.00;;;;;;10456338;28;20221;-79
2022/07/27 09:01:54;;;;;;;6.20;5.80;;;26.90;60.80;;;;;;10458058;28;20233;-77
2022/07/27 09:06:56;;;;;;;6.60;6.10;;;27.10;59.90;;;;;;10457044;28;20278;-80
2022/07/27 09:12:07;;;;;;;6.80;6.20;;;27.30;60.40;;;;;;10459278;28;20670;-77
2022/07/27 09:17:23;;;;;;;5.90;5.50;;;27.60;59.60;;;;;;10451473;28;20280;-80
2022/07/27 09:22:45;;;;;;;7.40;6.80;;;27.90;59.30;;;;;;10459532;28;20213;-78
2022/07/27 09:27:53;;;;;;;6.27;5.77;;;28.20;59.00;;;;;;10451599;28;20244;-79
2022/07/27 09:32:57;;;;;;;7.13;6.53;;;28.40;58.80;;;;;;10459163;28;20296;-80
2022/07/27 09:38:17;;;;;;;5.73;5.50;;;28.60;58.40;;;;;;10457221;28;20182;-79
2022/07/27 09:43:20;;;;;;;8.53;5.90;;;28.80;58.30;;;;;;10455561;28;20216;-79
2022/07/27 09:48:23;;;;;;;6.00;5.60;;;28.60;57.70;;;;;;10454993;28;20213;-78
2022/07/27 09:53:28;;;;;;;5.90;5.60;;;28.60;58.10;;;;;;10453051;28;20271;-78
2022/07/27 09:58:46;;;;;;;6.03;5.60;;;28.80;57.30;;;;;;10453175;28;20731;-78
2022/07/27 10:03:50;;;;;;;6.20;5.90;;;28.70;57.70;;;;;;10459863;28;20247;-79
2022/07/27 10:08:53;;;;;;;5.80;5.40;;;28.90;57.50;;;;;;10460556;28;20217;-79
2022/07/27 10:13:59;;;;;;;6.20;5.70;;;29.20;57.20;;;;;;10459759;28;20216;-80
2022/07/27 10:19:08;;;;;;;5.87;5.37;;;29.40;55.40;;;;;;10456366;28;20201;-78
2022/07/27 10:24:12;;;;;;;6.53;6.13;;;29.80;56.10;;;;;;10461871;28;21012;-79
2022/07/27 10:29:19;;;;;;;5.97;5.67;;;30.30;55.20;;;;;;10471496;28;20299;-81
2022/07/27 10:34:35;;;;;;;5.43;5.23;;;29.90;55.70;;;;;;10457066;28;20228;-81
2022/07/27 10:39:39;;;;;;;5.70;5.40;;;29.60;56.50;;;;;;10462579;28;20266;-80
2022/07/27 10:45:00;;;;;;;7.03;6.57;;;29.30;56.00;;;;;;10463777;28;20229;-79
2022/07/27 10:50:28;;;;;;;5.73;5.40;;;28.80;55.60;;;;;;10459392;28;20641;-80
2022/07/27 10:55:57;;;;;;;5.50;5.20;;;28.20;56.80;;;;;;10455974;28;20251;-78
2022/07/27 11:01:02;;;;;;;5.43;5.10;;;27.70;56.90;;;;;;10451374;28;20895;-79
2022/07/27 11:06:07;;;;;;;6.40;5.90;;;27.50;56.80;;;;;;10447898;28;20276;-79
2022/07/27 11:11:10;;;;;;;5.03;4.80;;;27.50;57.00;;;;;;10448582;28;20229;-79
2022/07/27 11:16:16;;;;;;;5.33;5.00;;;27.50;58.00;;;;;;10448530;28;20267;-79
2022/07/27 11:21:20;;;;;;;5.13;4.83;;;27.60;57.40;;;;;;10448737;28;20266;-79
2022/07/27 11:26:24;;;;;;;6.13;5.63;;;27.70;56.70;;;;;;10428093;28;20668;-79
2022/07/27 11:31:27;;;;;;;5.53;5.13;;;27.60;56.20;;;;;;10444956;28;20308;-78
2022/07/27 11:36:38;;;;;;;6.33;5.83;;;27.50;58.00;;;;;;10439921;28;20212;-79
2022/07/27 11:41:41;;;;;;;5.30;4.90;;;27.50;57.30;;;;;;10444921;28;20708;-79
2022/07/27 11:46:46;;;;;;;5.83;5.40;;;27.70;56.10;;;;;;10436319;28;20610;-79
2022/07/27 11:51:50;;;;;;;4.87;4.60;;;27.70;55.70;;;;;;10443484;28;20252;-79
2022/07/27 11:56:55;;;;;;;5.43;5.03;;;27.90;52.90;;;;;;10445438;28;20259;-79
2022/07/27 12:02:00;;;;;;;10.13;9.23;;;28.00;53.40;;;;;;10446467;28;20932;-79
2022/07/27 12:07:09;;;;;;;4.80;4.50;;;27.90;54.70;;;;;;10449445;28;20206;-79
2022/07/27 12:12:14;;;;;;;4.70;4.50;;;27.80;54.70;;;;;;10456760;28;20223;-79
2022/07/27 12:17:27;;;;;;;6.17;4.47;;;27.70;55.50;;;;;;10465074;28;20198;-79
2022/07/27 12:22:33;;;;;;;4.80;4.50;;;27.60;54.30;;;;;;10456255;28;20217;-79
2022/07/27 12:27:36;;;;;;;4.40;4.00;;;27.50;55.40;;;;;;10453921;28;20315;-79
2022/07/27 12:32:41;;;;;;;5.07;4.67;;;27.60;55.10;;;;;;10458697;28;21082;-78
2022/07/27 12:37:44;;;;;;;4.17;3.97;;;27.80;55.20;;;;;;10452389;28;20193;-78
2022/07/27 12:42:56;;;;;;;4.63;4.43;;;27.70;54.40;;;;;;10452792;28;20221;-79
2022/07/27 12:48:07;;;;;;;4.77;4.57;;;27.50;54.70;;;;;;10454741;28;20295;-78
2022/07/27 12:53:12;;;;;;;4.50;4.10;;;27.50;54.10;;;;;;10444125;28;20249;-79
2022/07/27 12:58:14;;;;;;;4.27;4.07;;;27.50;54.40;;;;;;10447389;28;20574;-77
2022/07/27 13:03:17;;;;;;;4.53;4.23;;;27.60;54.30;;;;;;10444477;28;20580;-79
2022/07/27 13:08:20;;;;;;;3.73;3.30;;;27.60;54.80;;;;;;10450337;28;20224;-79
2022/07/27 13:13:23;;;;;;;4.90;4.60;;;27.50;53.70;;;;;;10445771;28;20256;-79
2022/07/27 13:18:27;;;;;;;4.93;4.73;;;27.20;54.90;;;;;;10446853;28;20284;-79
2022/07/27 13:23:29;;;;;;;5.03;4.63;;;26.90;55.20;;;;;;10454271;28;20329;-79
2022/07/27 13:28:32;;;;;;;4.00;3.80;;;26.90;55.20;;;;;;10456228;28;20232;-79
2022/07/27 13:33:35;;;;;;;3.93;3.83;;;26.90;56.00;;;;;;10457486;28;21391;-80
2022/07/27 13:38:37;;;;;;;4.47;4.10;;;26.90;55.00;;;;;;10454463;28;20239;-79
2022/07/27 13:43:39;;;;;;;4.80;4.50;;;27.10;54.10;;;;;;10455522;28;20228;-79
2022/07/27 13:48:43;;;;;;;5.07;4.60;;;27.10;53.60;;;;;;10459452;28;20221;-79
2022/07/27 13:53:45;;;;;;;4.30;4.10;;;27.20;53.40;;;;;;10463028;28;20244;-79
2022/07/27 13:58:47;;;;;;;4.40;4.20;;;27.30;54.20;;;;;;10462843;28;20197;-79
2022/07/27 14:03:51;;;;;;;3.37;3.17;;;27.30;54.10;;;;;;10462997;28;20312;-79
2022/07/27 14:08:53;;;;;;;4.80;4.50;;;27.20;54.40;;;;;;10464023;28;20219;-79
2022/07/27 14:13:55;;;;;;;5.43;4.77;;;27.10;53.80;;;;;;10463292;28;20688;-79
2022/07/27 14:18:58;;;;;;;4.50;4.30;;;27.00;54.00;;;;;;10462974;28;20239;-79
2022/07/27 14:24:01;;;;;;;4.63;4.33;;;27.00;54.20;;;;;;10463347;28;20224;-79
2022/07/27 14:29:03;;;;;;;4.70;4.40;;;27.00;53.90;;;;;;10465970;28;20717;-79
2022/07/27 14:34:07;;;;;;;4.77;4.57;;;27.10;54.60;;;;;;10462973;28;20227;-79
2022/07/27 14:39:09;;;;;;;4.20;4.00;;;27.20;54.30;;;;;;10463092;28;20197;-79
2022/07/27 14:44:11;;;;;;;4.40;4.10;;;27.20;55.30;;;;;;10462059;28;20568;-79
2022/07/27 14:49:15;;;;;;;5.17;4.80;;;27.20;53.80;;;;;;10457222;28;20261;-79
2022/07/27 14:54:17;;;;;;;7.50;4.70;;;27.30;53.40;;;;;;10457429;28;20221;-79
2022/07/27 14:59:19;;;;;;;5.30;4.83;;;27.30;54.00;;;;;;10457800;28;20205;-78
2022/07/27 15:04:22;;;;;;;5.27;4.87;;;27.30;53.50;;;;;;10450253;28;20240;-79
2022/07/27 15:09:27;;;;;;;3.70;3.53;;;27.30;53.20;;;;;;10450724;28;20210;-79
2022/07/27 15:14:29;;;;;;;3.60;3.40;;;27.40;53.60;;;;;;10452713;28;20701;-79
2022/07/27 15:19:32;;;;;;;4.63;4.33;;;27.40;53.60;;;;;;10451616;28;20276;-79
2022/07/27 15:24:35;;;;;;;4.67;4.47;;;27.20;53.60;;;;;;10456361;28;20224;-80
2022/07/27 15:29:37;;;;;;;3.70;3.50;;;27.20;53.30;;;;;;10460903;28;20379;-80
2022/07/27 15:34:41;;;;;;;4.30;4.00;;;27.20;54.70;;;;;;10458773;28;20240;-81
2022/07/27 15:39:43;;;;;;;6.70;4.83;;;27.20;53.40;;;;;;10465681;28;20203;-80
2022/07/27 15:44:45;;;;;;;4.70;4.40;;;27.10;53.40;;;;;;10468395;28;20236;-80
2022/07/27 15:49:48;;;;;;;4.60;4.40;;;27.00;52.90;;;;;;10462656;28;20240;-78
2022/07/27 15:54:51;;;;;;;4.53;4.33;;;26.90;53.10;;;;;;10462148;28;20305;-78
2022/07/27 15:59:53;;;;;;;5.00;3.77;;;26.70;53.80;;;;;;10461110;28;20216;-78
2022/07/27 16:04:56;;;;;;;5.33;4.20;;;26.60;54.10;;;;;;10459192;28;20256;-78
2022/07/27 16:09:58;;;;;;;4.50;4.23;;;26.50;55.00;;;;;;10459736;28;20392;-78
2022/07/27 16:15:01;;;;;;;4.33;4.13;;;26.60;53.90;;;;;;10454369;28;20588;-78
2022/07/27 16:20:07;;;;;;;4.43;4.17;;;26.50;53.90;;;;;;10454929;28;20232;-79
2022/07/27 16:25:09;;;;;;;5.20;4.57;;;26.40;54.30;;;;;;10449681;28;20224;-79
2022/07/27 16:30:11;;;;;;;4.33;3.80;;;26.40;54.60;;;;;;10468251;28;20224;-78
2022/07/27 16:35:15;;;;;;;4.40;4.10;;;26.30;54.50;;;;;;10475137;28;20215;-79
2022/07/27 16:40:17;;;;;;;5.83;4.20;;;26.30;55.20;;;;;;10471267;28;20510;-80
2022/07/27 16:45:19;;;;;;;4.97;4.40;;;26.30;54.30;;;;;;10463664;28;20201;-79
2022/07/27 16:50:23;;;;;;;3.93;3.80;;;26.20;54.60;;;;;;10464480;28;20233;-78
2022/07/27 16:55:25;;;;;;;4.27;4.07;;;26.20;54.70;;;;;;10457675;28;20571;-78
2022/07/27 17:00:27;;;;;;;4.10;3.70;;;26.20;54.70;;;;;;10462604;28;20252;-80
2022/07/27 17:05:31;;;;;;;4.43;4.03;;;26.00;55.10;;;;;;10462835;28;20201;-79
2022/07/27 17:10:33;;;;;;;4.53;4.23;;;26.00;54.70;;;;;;10464269;28;20232;-79
2022/07/27 17:15:36;;;;;;;4.93;4.50;;;25.90;55.80;;;;;;10459180;28;20287;-77
2022/07/27 17:20:40;;;;;;;4.40;4.10;;;25.80;54.30;;;;;;10456462;28;20705;-78
2022/07/27 17:25:42;;;;;;;4.33;4.10;;;25.70;54.30;;;;;;10453903;28;20588;-78
2022/07/27 17:30:44;;;;;;;3.80;3.60;;;25.70;56.00;;;;;;10455714;28;20225;-79
2022/07/27 17:35:48;;;;;;;4.10;3.83;;;25.60;56.60;;;;;;10456810;28;20717;-80
2022/07/27 17:40:50;;;;;;;4.40;4.00;;;25.70;56.10;;;;;;10464692;28;20221;-78
2022/07/27 17:45:52;;;;;;;4.03;3.83;;;25.60;55.80;;;;;;10419898;28;20324;-79
2022/07/27 17:50:56;;;;;;;4.40;4.00;;;25.60;56.30;;;;;;10456211;28;20304;-78
2022/07/27 17:55:59;;;;;;;4.50;4.20;;;25.60;56.60;;;;;;10456376;28;20249;-80
2022/07/27 18:01:01;;;;;;;3.43;3.23;;;25.60;56.10;;;;;;10448485;28;20217;-79
2022/07/27 18:06:05;;;;;;;5.10;4.80;;;25.50;55.60;;;;;;10455375;28;20201;-79
2022/07/27 18:11:10;;;;;;;3.57;3.37;;;25.50;55.60;;;;;;10456321;28;20716;-80
2022/07/27 18:16:13;;;;;;;3.70;3.50;;;25.40;56.00;;;;;;10457271;28;20197;-79
2022/07/27 18:21:16;;;;;;;3.97;3.67;;;25.30;58.20;;;;;;10453198;28;20271;-79
2022/07/27 18:26:20;;;;;;;3.67;3.37;;;25.30;57.10;;;;;;10458053;28;20679;-79
2022/07/27 18:31:22;;;;;;;3.50;3.30;;;25.30;57.60;;;;;;10451671;28;20223;-81
2022/07/27 18:36:25;;;;;;;4.10;3.80;;;25.30;56.80;;;;;;10445688;28;20255;-78
2022/07/27 18:41:27;;;;;;;4.23;3.97;;;25.20;56.00;;;;;;10445725;28;20241;-78
2022/07/27 18:46:29;;;;;;;4.03;3.60;;;25.10;56.40;;;;;;10450258;28;20201;-79
2022/07/27 18:51:33;;;;;;;4.20;3.77;;;25.10;58.20;;;;;;10453923;28;20767;-79
2022/07/27 18:56:36;;;;;;;3.60;3.40;;;25.00;56.70;;;;;;10453567;28;20208;-80
2022/07/27 19:01:38;;;;;;;6.60;3.27;;;25.00;56.30;;;;;;10445588;28;20229;-79
2022/07/27 19:06:43;;;;;;;3.53;3.23;;;25.00;55.40;;;;;;10452797;28;20203;-78
2022/07/27 19:11:45;;;;;;;3.90;3.70;;;24.90;56.60;;;;;;10429981;28;20732;-78
2022/07/27 19:16:47;;;;;;;3.70;3.40;;;24.90;56.30;;;;;;10451565;28;20242;-80
2022/07/27 19:21:51;;;;;;;4.00;3.70;;;24.80;55.80;;;;;;10448525;28;20233;-80
2022/07/27 19:26:53;;;;;;;3.90;3.60;;;24.80;57.50;;;;;;10454147;28;20387;-79
2022/07/27 19:31:55;;;;;;;3.60;3.40;;;24.80;55.40;;;;;;10455118;28;20221;-79
2022/07/27 19:36:59;;;;;;;3.67;3.47;;;24.80;57.90;;;;;;10450261;28;20257;-79
2022/07/27 19:42:01;;;;;;;3.80;3.50;;;24.80;56.10;;;;;;10450122;28;20224;-79
2022/07/27 19:47:03;;;;;;;3.67;3.30;;;24.80;57.90;;;;;;10449528;28;20623;-78
2022/07/27 19:52:07;;;;;;;3.43;3.23;;;24.70;57.10;;;;;;10448218;28;20220;-79
2022/07/27 19:57:10;;;;;;;3.77;3.47;;;24.70;56.80;;;;;;10454623;28;20284;-78
2022/07/27 20:02:12;;;;;;;3.60;3.50;;;24.60;57.30;;;;;;10452663;28;20249;-78
2022/07/27 20:07:16;;;;;;;4.50;2.90;;;24.60;56.60;;;;;;10452857;28;20258;-78
2022/07/27 20:12:18;;;;;;;3.70;2.97;;;24.50;56.60;;;;;;10462771;28;20748;-81
2022/07/27 20:17:20;;;;;;;3.63;3.40;;;24.40;57.40;;;;;;10463482;28;20263;-80
2022/07/27 20:22:23;;;;;;;5.50;3.33;;;24.40;58.30;;;;;;10466089;28;20332;-78
2022/07/27 20:27:27;;;;;;;3.10;3.00;;;24.30;58.20;;;;;;10461462;28;20201;-78
2022/07/27 20:32:29;;;;;;;4.30;3.97;;;24.20;61.00;;;;;;10442422;28;20331;-79
2022/07/27 20:37:33;;;;;;;4.13;3.80;;;24.20;58.90;;;;;;10453364;28;20207;-78
2022/07/27 20:42:35;;;;;;;5.53;4.40;;;24.00;58.80;;;;;;10456941;28;20622;-78
2022/07/27 20:47:38;;;;;;;4.77;3.80;;;24.00;58.60;;;;;;10456705;28;20205;-78
2022/07/27 20:52:41;;;;;;;4.07;3.77;;;23.90;59.30;;;;;;10458786;28;20229;-79
2022/07/27 20:57:44;;;;;;;3.40;3.20;;;23.80;60.30;;;;;;10456983;28;20700;-78
2022/07/27 21:02:47;;;;;;;4.03;3.63;;;23.80;59.70;;;;;;10462635;28;20226;-78
2022/07/27 21:07:50;;;;;;;3.30;3.10;;;23.70;59.60;;;;;;10455575;28;20205;-79
2022/07/27 21:12:52;;;;;;;3.70;3.50;;;23.70;60.20;;;;;;10461603;28;20252;-78
2022/07/27 21:17:55;;;;;;;6.00;4.07;;;23.70;62.30;;;;;;10456689;28;20735;-78
2022/07/27 21:28:29;;;;;;;3.90;3.70;;;23.60;59.10;;;;;;10424428;28;20608;-78
2022/07/27 21:33:31;;;;;;;3.67;3.50;;;23.60;60.10;;;;;;10454785;28;20296;-79
2022/07/27 21:38:34;;;;;;;3.77;3.57;;;23.60;59.30;;;;;;10458010;28;20205;-79
2022/07/27 21:43:37;;;;;;;4.23;4.03;;;23.60;59.70;;;;;;10457073;28;20581;-79
2022/07/27 21:48:39;;;;;;;4.90;4.40;;;23.50;61.60;;;;;;10439628;28;20227;-79
2022/07/27 21:53:42;;;;;;;4.50;4.20;;;23.50;60.00;;;;;;10438497;28;20213;-78
2022/07/27 21:58:45;;;;;;;4.50;4.20;;;23.50;59.80;;;;;;10450703;28;20614;-80
2022/07/27 22:03:47;;;;;;;4.13;3.70;;;23.40;60.80;;;;;;10458482;28;20259;-79
2022/07/27 22:08:50;;;;;;;3.80;3.60;;;23.40;62.00;;;;;;10451730;28;20743;-79
2022/07/27 22:13:52;;;;;;;4.10;3.80;;;23.30;60.70;;;;;;10451679;28;20701;-79
2022/07/27 22:18:55;;;;;;;4.57;4.27;;;23.20;61.50;;;;;;10455482;28;20244;-79
2022/07/27 22:23:59;;;;;;;3.80;3.60;;;23.10;61.80;;;;;;10462408;28;20217;-80
2022/07/27 22:29:01;;;;;;;4.00;3.80;;;23.00;61.40;;;;;;10461651;28;20201;-80
2022/07/27 22:34:03;;;;;;;4.13;3.83;;;22.90;61.70;;;;;;10460796;28;20248;-79
2022/07/27 22:39:06;;;;;;;4.83;4.50;;;22.80;61.90;;;;;;10456107;28;20193;-79
2022/07/27 22:44:08;;;;;;;4.07;3.83;;;22.70;62.10;;;;;;10459285;28;20221;-79
2022/07/27 22:49:10;;;;;;;4.00;3.80;;;22.60;61.70;;;;;;10456492;28;20209;-80
2022/07/27 22:54:14;;;;;;;4.20;3.87;;;22.50;62.00;;;;;;10456988;28;20677;-80
2022/07/27 22:59:16;;;;;;;3.83;3.53;;;22.50;62.50;;;;;;10457178;28;20197;-78
2022/07/27 23:04:19;;;;;;;4.60;4.30;;;22.40;63.00;;;;;;10456832;28;20235;-79
2022/07/27 23:09:23;;;;;;;4.30;3.90;;;22.40;62.90;;;;;;10454466;28;20221;-80
2022/07/27 23:14:25;;;;;;;4.10;3.90;;;22.30;62.20;;;;;;10457123;28;20303;-79
2022/07/27 23:19:27;;;;;;;8.10;4.20;;;22.30;62.20;;;;;;10455776;28;20193;-80
2022/07/27 23:24:31;;;;;;;4.33;4.03;;;22.30;61.90;;;;;;10454186;28;20221;-80
2022/07/27 23:29:33;;;;;;;4.07;3.77;;;22.20;62.80;;;;;;10457204;28;20307;-80
2022/07/27 23:34:35;;;;;;;5.40;3.60;;;22.30;63.80;;;;;;10457466;28;20225;-80
2022/07/27 23:39:38;;;;;;;4.13;3.80;;;22.20;62.90;;;;;;10458288;28;20197;-79
2022/07/27 23:44:40;;;;;;;4.07;3.60;;;22.30;62.80;;;;;;10459029;28;20213;-79
2022/07/27 23:49:42;;;;;;;4.10;3.70;;;22.30;62.90;;;;;;10457145;28;20213;-80
2022/07/27 23:54:46;;;;;;;4.10;3.70;;;22.30;63.10;;;;;;10458203;28;20213;-80
2022/07/27 23:59:48;;;;;;;4.00;3.60;;;22.40;63.90;;;;;;10465145;28;20201;-79
